createdAt,value
2022-09-18T00:01:45.946Z,8.10
2022-09-18T00:04:16.139Z,8.00
2022-09-18T00:06:45.843Z,7.97
2022-09-18T00:09:15.969Z,8.08
2022-09-18T00:11:46.373Z,8.07
2022-09-18T00:14:16.720Z,7.87
2022-09-18T00:16:47.132Z,7.86
2022-09-18T00:19:20.723Z,7.77
2022-09-18T00:21:51.432Z,7.78
2022-09-18T00:24:20.087Z,7.75
2022-09-18T00:26:48.844Z,7.62
2022-09-18T00:29:18.243Z,7.56
2022-09-18T00:31:46.879Z,7.54
2022-09-18T00:34:16.104Z,7.55
2022-09-18T00:36:44.455Z,7.61
2022-09-18T00:39:12.187Z,7.72
2022-09-18T00:41:42.746Z,7.69
2022-09-18T00:44:35.686Z,7.69
2022-09-18T00:47:08.439Z,7.78
2022-09-18T00:49:44.789Z,7.78
2022-09-18T00:52:14.700Z,7.81
2022-09-18T00:54:51.057Z,7.76
2022-09-18T00:57:24.254Z,7.74
2022-09-18T00:59:53.395Z,7.77
2022-09-18T01:02:22.315Z,7.77
2022-09-18T01:04:59.641Z,7.77
2022-09-18T01:07:49.415Z,7.75
2022-09-18T01:10:28.548Z,7.77
2022-09-18T01:13:12.928Z,7.86
2022-09-18T01:16:05.204Z,7.86
2022-09-18T01:18:49.358Z,7.93
2022-09-18T01:21:34.100Z,7.92
2022-09-18T01:24:19.006Z,7.80
2022-09-18T01:27:02.297Z,7.73
2022-09-18T01:29:55.750Z,7.62
2022-09-18T01:32:29.362Z,7.64
2022-09-18T01:35:40.491Z,7.74
2022-09-18T01:38:48.747Z,7.66
2022-09-18T01:41:25.028Z,7.52
2022-09-18T01:44:14.918Z,7.48
2022-09-18T01:46:50.803Z,7.40
2022-09-18T01:49:25.822Z,7.46
2022-09-18T01:52:02.974Z,7.41
2022-09-18T01:54:48.532Z,7.45
2022-09-18T01:57:29.378Z,7.51
2022-09-18T02:00:30.718Z,7.57
2022-09-18T02:03:23.248Z,7.60
2022-09-18T02:05:57.168Z,7.53
2022-09-18T02:08:32.591Z,7.47
2022-09-18T02:11:09.889Z,7.45
2022-09-18T02:13:48.525Z,7.43
2022-09-18T02:16:37.363Z,7.33
2022-09-18T02:19:15.464Z,7.30
2022-09-18T02:21:48.399Z,7.42
2022-09-18T02:24:34.359Z,7.28
2022-09-18T02:27:03.850Z,7.24
2022-09-18T02:29:32.847Z,7.15
2022-09-18T02:32:06.174Z,7.18
2022-09-18T02:34:37.365Z,7.30
2022-09-18T02:37:13.675Z,7.27
2022-09-18T02:40:18.015Z,7.30
2022-09-18T02:43:18.921Z,7.40
2022-09-18T02:46:13.541Z,7.42
2022-09-18T02:49:01.617Z,7.47
2022-09-18T02:51:40.566Z,7.46
2022-09-18T02:54:48.655Z,7.54
2022-09-18T02:57:31.851Z,7.52
2022-09-18T03:00:01.786Z,7.64
2022-09-18T03:02:29.321Z,7.70
2022-09-18T03:04:59.420Z,7.70
2022-09-18T03:07:28.518Z,7.71
2022-09-18T03:09:55.551Z,7.65
2022-09-18T03:12:22.701Z,7.66
2022-09-18T03:14:50.835Z,7.63
2022-09-18T03:17:23.995Z,7.75
2022-09-18T03:19:51.104Z,7.73
2022-09-18T03:22:18.211Z,7.76
2022-09-18T03:24:45.245Z,7.85
2022-09-18T03:27:14.327Z,7.79
2022-09-18T03:29:46.453Z,7.82
2022-09-18T03:32:13.636Z,7.77
2022-09-18T03:34:48.026Z,7.87
2022-09-18T03:37:21.369Z,7.88
2022-09-18T03:39:48.628Z,8.04
2022-09-18T03:42:21.720Z,8.04
2022-09-18T03:44:57.811Z,8.09
2022-09-18T03:47:26.446Z,8.11
2022-09-18T03:49:53.659Z,7.99
2022-09-18T03:52:23.739Z,8.05
2022-09-18T03:54:50.764Z,8.00
2022-09-18T03:57:18.804Z,8.16
2022-09-18T03:59:45.876Z,8.12
2022-09-18T04:02:13.013Z,7.99
2022-09-18T04:04:39.994Z,8.12
2022-09-18T04:07:14.120Z,7.97
2022-09-18T04:09:42.164Z,7.99
2022-09-18T04:12:16.314Z,8.11
2022-09-18T04:14:43.344Z,8.02
2022-09-18T04:17:11.420Z,8.07
2022-09-18T04:19:39.448Z,8.02
2022-09-18T04:22:07.628Z,8.10
2022-09-18T04:24:36.527Z,8.05
2022-09-18T04:27:10.056Z,7.98
2022-09-18T04:29:44.209Z,8.04
2022-09-18T04:32:18.412Z,8.04
2022-09-18T04:34:46.473Z,8.05
2022-09-18T04:37:13.565Z,8.20
2022-09-18T04:39:40.686Z,8.17
2022-09-18T04:42:07.781Z,8.18
2022-09-18T04:44:35.877Z,8.20
2022-09-18T04:47:08.194Z,8.36
2022-09-18T04:49:35.313Z,8.33
2022-09-18T04:52:02.862Z,8.20
2022-09-18T04:54:31.264Z,8.22
2022-09-18T04:56:58.431Z,8.28
2022-09-18T04:59:25.618Z,8.34
2022-09-18T05:01:54.709Z,8.40
2022-09-18T05:04:22.817Z,8.39
2022-09-18T05:06:50.885Z,8.36
2022-09-18T05:09:17.924Z,8.41
2022-09-18T05:11:45.143Z,8.39
2022-09-18T05:14:12.221Z,8.45
2022-09-18T05:16:39.333Z,8.59
2022-09-18T05:19:30.790Z,8.52
2022-09-18T05:21:57.857Z,8.64
2022-09-18T05:24:24.976Z,8.62
2022-09-18T05:26:52.229Z,8.65
2022-09-18T05:29:20.422Z,8.66
2022-09-18T05:31:49.746Z,8.70
2022-09-18T05:34:21.860Z,8.69
2022-09-18T05:37:12.335Z,8.71
2022-09-18T05:39:39.633Z,8.75
2022-09-18T05:42:06.917Z,8.69
2022-09-18T05:44:33.888Z,8.77
2022-09-18T05:47:02.317Z,8.81
2022-09-18T05:49:29.392Z,8.72
2022-09-18T05:51:57.482Z,8.66
2022-09-18T05:54:26.539Z,8.83
2022-09-18T05:56:54.620Z,8.87
2022-09-18T05:59:22.213Z,8.80
2022-09-18T06:01:55.158Z,8.90
2022-09-18T06:04:26.339Z,9.02
2022-09-18T06:06:54.414Z,8.96
2022-09-18T06:09:21.972Z,8.99
2022-09-18T06:11:50.108Z,9.09
2022-09-18T06:14:20.178Z,9.18
2022-09-18T06:16:48.917Z,9.17
2022-09-18T06:19:17.096Z,9.14
2022-09-18T06:21:44.217Z,9.21
2022-09-18T06:24:13.349Z,9.28
2022-09-18T06:26:40.388Z,9.19
2022-09-18T06:29:09.434Z,9.23
2022-09-18T06:31:37.696Z,9.07
2022-09-18T06:34:04.654Z,9.22
2022-09-18T06:36:31.689Z,9.21
2022-09-18T06:38:58.725Z,9.21
2022-09-18T06:41:25.864Z,9.34
2022-09-18T06:43:52.920Z,9.47
2022-09-18T06:46:20.032Z,9.45
2022-09-18T06:48:51.152Z,9.56
2022-09-18T06:51:18.258Z,9.56
2022-09-18T06:53:53.113Z,9.41
2022-09-18T06:56:20.080Z,9.56
2022-09-18T06:58:47.071Z,9.34
2022-09-18T07:01:18.329Z,9.41
2022-09-18T07:03:50.118Z,9.47
2022-09-18T07:06:18.554Z,9.57
2022-09-18T07:08:45.754Z,9.59
2022-09-18T07:11:20.838Z,9.67
2022-09-18T07:13:56.562Z,9.50
2022-09-18T07:16:25.906Z,9.51
2022-09-18T07:18:57.792Z,9.73
2022-09-18T07:21:29.102Z,9.79
2022-09-18T07:24:00.484Z,9.98
2022-09-18T07:26:33.568Z,9.92
2022-09-18T07:29:00.659Z,10.02
2022-09-18T07:31:28.817Z,10.16
2022-09-18T07:33:56.938Z,10.10
2022-09-18T07:36:27.061Z,10.23
2022-09-18T07:38:54.059Z,10.43
2022-09-18T07:41:24.292Z,10.40
2022-09-18T07:43:51.791Z,10.51
2022-09-18T07:46:20.103Z,10.50
2022-09-18T07:48:47.090Z,10.50
2022-09-18T07:51:14.474Z,10.53
2022-09-18T07:53:42.504Z,10.30
2022-09-18T07:56:20.908Z,10.22
2022-09-18T07:58:52.953Z,10.15
2022-09-18T08:01:21.105Z,9.89
2022-09-18T08:03:48.264Z,9.89
2022-09-18T08:06:15.466Z,9.90
2022-09-18T08:08:45.939Z,9.91
2022-09-18T08:11:13.928Z,9.99
2022-09-18T08:13:42.200Z,10.05
2022-09-18T08:16:10.262Z,10.04
2022-09-18T08:18:39.778Z,9.79
2022-09-18T08:21:10.788Z,9.81
2022-09-18T08:23:39.024Z,9.81
2022-09-18T08:26:07.180Z,9.69
2022-09-18T08:28:43.915Z,9.91
2022-09-18T08:31:11.150Z,9.91
2022-09-18T08:33:38.269Z,9.90
2022-09-18T08:36:08.104Z,10.06
2022-09-18T08:38:36.246Z,10.10
2022-09-18T08:41:59.239Z,9.98
2022-09-18T08:44:30.054Z,9.79
2022-09-18T08:47:11.948Z,9.82
2022-09-18T08:49:49.858Z,9.86
2022-09-18T08:52:23.585Z,10.11
2022-09-18T08:54:56.530Z,10.28
2022-09-18T08:57:35.686Z,10.41
2022-09-18T09:00:23.251Z,10.44
2022-09-18T09:03:04.387Z,10.37
2022-09-18T09:05:43.530Z,10.31
2022-09-18T09:08:32.592Z,10.35
2022-09-18T09:11:33.548Z,10.49
2022-09-18T09:14:13.500Z,10.53
2022-09-18T09:16:48.084Z,10.78
2022-09-18T09:19:34.448Z,10.84
2022-09-18T09:22:42.485Z,10.92
2022-09-18T09:25:14.349Z,11.16
2022-09-18T09:27:49.689Z,11.33
2022-09-18T09:30:20.926Z,11.56
2022-09-18T09:33:03.313Z,11.93
2022-09-18T09:35:46.668Z,12.28
2022-09-18T09:38:41.802Z,12.36
2022-09-18T09:41:42.993Z,12.13
2022-09-18T09:44:19.328Z,11.64
2022-09-18T09:47:22.405Z,11.21
2022-09-18T09:50:22.494Z,10.94
2022-09-18T09:52:50.733Z,10.82
2022-09-18T09:55:25.167Z,10.76
2022-09-18T09:58:17.051Z,10.57
2022-09-18T10:01:06.010Z,10.44
2022-09-18T10:04:08.055Z,10.14
2022-09-18T10:07:02.091Z,9.84
2022-09-18T10:09:48.726Z,9.68
2022-09-18T10:12:29.986Z,9.47
2022-09-18T10:15:14.166Z,9.41
2022-09-18T10:17:43.283Z,9.16
2022-09-18T10:20:26.345Z,9.26
2022-09-18T10:22:59.716Z,9.43
2022-09-18T10:25:55.122Z,9.66
2022-09-18T10:28:25.874Z,9.67
2022-09-18T10:31:12.668Z,9.91
2022-09-18T10:33:47.981Z,9.85
2022-09-18T10:36:39.371Z,9.76
2022-09-18T10:39:48.034Z,9.88
2022-09-18T10:42:19.862Z,9.81
2022-09-18T10:45:03.194Z,9.79
2022-09-18T10:47:37.378Z,9.72
2022-09-18T10:50:20.809Z,9.69
2022-09-18T10:52:50.194Z,9.59
2022-09-18T10:55:29.071Z,9.59
2022-09-18T10:57:58.796Z,9.66
2022-09-18T11:00:28.190Z,9.60
2022-09-18T11:03:01.871Z,9.74
2022-09-18T11:05:38.483Z,9.83
2022-09-18T11:08:16.453Z,9.79
2022-09-18T11:10:49.310Z,9.84
2022-09-18T11:13:28.890Z,9.88
2022-09-18T11:16:03.521Z,9.79
2022-09-18T11:18:33.227Z,9.58
2022-09-18T11:21:28.156Z,9.68
2022-09-18T11:24:07.471Z,9.66
2022-09-18T11:26:36.492Z,9.71
2022-09-18T11:29:18.300Z,9.80
2022-09-18T11:32:01.409Z,9.72
2022-09-18T11:34:53.283Z,9.77
2022-09-18T11:37:36.558Z,9.79
2022-09-18T11:40:15.728Z,9.91
2022-09-18T11:42:51.069Z,9.98
2022-09-18T11:45:36.958Z,10.32
2022-09-18T11:48:17.095Z,10.65
2022-09-18T11:50:45.669Z,10.78
2022-09-18T11:53:28.195Z,10.80
2022-09-18T11:56:19.496Z,10.65
2022-09-18T11:59:25.334Z,10.53
2022-09-18T12:02:45.567Z,10.47
2022-09-18T12:05:44.814Z,10.40
2022-09-18T12:08:47.715Z,10.41
2022-09-18T12:11:55.889Z,10.52
2022-09-18T12:14:33.559Z,10.66
2022-09-18T12:17:20.637Z,10.64
2022-09-18T12:19:53.820Z,10.48
2022-09-18T12:22:26.709Z,10.48
2022-09-18T12:24:55.764Z,10.45
2022-09-18T12:27:41.098Z,10.34
2022-09-18T12:30:19.329Z,10.36
2022-09-18T12:32:52.093Z,10.34
2022-09-18T12:35:46.979Z,10.36
2022-09-18T12:38:33.254Z,10.42
2022-09-18T12:41:16.049Z,10.50
2022-09-18T12:44:00.248Z,10.78
2022-09-18T12:47:03.851Z,10.83
2022-09-18T12:50:03.335Z,10.96
2022-09-18T12:53:09.073Z,10.89
2022-09-18T12:56:01.334Z,11.04
2022-09-18T12:58:47.111Z,11.29
2022-09-18T13:01:38.385Z,11.38
2022-09-18T13:04:20.869Z,11.37
2022-09-18T13:06:58.653Z,11.53
2022-09-18T13:09:34.903Z,11.47
2022-09-18T13:12:15.065Z,11.27
2022-09-18T13:14:57.266Z,11.34
2022-09-18T13:17:32.079Z,11.46
2022-09-18T13:20:07.236Z,11.45
2022-09-18T13:22:37.935Z,11.30
2022-09-18T13:25:20.413Z,11.12
2022-09-18T13:27:47.778Z,10.97
2022-09-18T13:30:22.512Z,10.87
2022-09-18T13:32:50.690Z,10.96
2022-09-18T13:35:23.842Z,11.04
2022-09-18T13:38:16.211Z,11.20
2022-09-18T13:40:48.388Z,11.13
2022-09-18T13:43:28.572Z,11.28
2022-09-18T13:46:07.491Z,11.47
2022-09-18T13:48:57.055Z,11.86
2022-09-18T13:51:32.456Z,11.91
2022-09-18T13:54:11.598Z,11.88
2022-09-18T13:57:15.388Z,11.85
2022-09-18T14:00:09.951Z,12.00
2022-09-18T14:02:39.765Z,12.05
2022-09-18T14:05:38.316Z,12.02
2022-09-18T14:08:19.327Z,12.20
2022-09-18T14:11:11.799Z,12.14
2022-09-18T14:14:11.475Z,12.14
2022-09-18T14:16:43.815Z,12.96
2022-09-18T14:19:32.656Z,13.78
2022-09-18T14:22:01.797Z,14.17
2022-09-18T14:24:50.584Z,14.83
2022-09-18T14:27:30.245Z,14.81
2022-09-18T14:30:00.054Z,14.73
2022-09-18T14:32:28.009Z,15.13
2022-09-18T14:35:18.941Z,15.00
2022-09-18T14:37:47.085Z,15.34
2022-09-18T14:40:27.655Z,14.69
2022-09-18T14:42:58.933Z,13.84
2022-09-18T14:45:31.794Z,13.35
2022-09-18T14:48:20.882Z,13.74
2022-09-18T14:50:59.777Z,14.27
2022-09-18T14:53:30.317Z,14.42
2022-09-18T14:56:11.933Z,14.54
2022-09-18T14:58:43.408Z,14.60
2022-09-18T15:01:29.675Z,14.56
2022-09-18T15:04:01.581Z,14.88
2022-09-18T15:06:45.903Z,15.02
2022-09-18T15:09:33.591Z,15.21
2022-09-18T15:12:04.410Z,15.37
2022-09-18T15:14:45.415Z,15.69
2022-09-18T15:17:22.862Z,16.03
2022-09-18T15:20:14.042Z,16.21
2022-09-18T15:22:41.492Z,16.14
2022-09-18T15:25:16.538Z,15.95
2022-09-18T15:27:45.171Z,16.17
2022-09-18T15:30:29.856Z,16.22
2022-09-18T15:33:04.511Z,16.18
2022-09-18T15:35:47.692Z,15.89
2022-09-18T15:38:20.225Z,15.53
2022-09-18T15:40:47.867Z,15.56
2022-09-18T15:43:30.162Z,15.62
2022-09-18T15:46:06.157Z,15.45
2022-09-18T15:48:45.903Z,15.22
2022-09-18T15:51:18.897Z,15.20
2022-09-18T15:54:23.637Z,14.95
2022-09-18T15:57:01.084Z,15.07
2022-09-18T15:59:40.834Z,15.16
2022-09-18T16:02:27.811Z,15.21
2022-09-18T16:05:07.445Z,14.94
2022-09-18T16:07:34.706Z,13.95
2022-09-18T16:10:26.864Z,13.62
2022-09-18T16:12:55.849Z,13.46
2022-09-18T16:15:24.454Z,13.67
2022-09-18T16:17:58.385Z,13.76
2022-09-18T16:20:33.864Z,13.97
2022-09-18T16:23:06.106Z,14.03
2022-09-18T16:25:38.156Z,13.65
2022-09-18T16:28:19.892Z,13.46
2022-09-18T16:30:47.718Z,13.31
2022-09-18T16:33:22.859Z,13.17
2022-09-18T16:36:22.614Z,12.50
2022-09-18T16:39:02.138Z,12.48
2022-09-18T16:41:30.869Z,11.97
2022-09-18T16:44:04.487Z,11.98
2022-09-18T16:46:37.903Z,12.08
2022-09-18T16:49:13.884Z,11.90
2022-09-18T16:51:41.097Z,11.65
2022-09-18T16:54:14.147Z,11.27
2022-09-18T16:56:51.924Z,11.03
2022-09-18T16:59:30.240Z,10.97
2022-09-18T17:02:04.755Z,10.90
2022-09-18T17:04:34.509Z,10.90
2022-09-18T17:07:03.216Z,10.93
2022-09-18T17:09:33.991Z,10.77
2022-09-18T17:12:03.662Z,10.78
2022-09-18T17:14:31.055Z,10.83
2022-09-18T17:16:59.183Z,10.75
2022-09-18T17:19:29.321Z,10.68
2022-09-18T17:21:57.246Z,10.53
2022-09-18T17:24:28.243Z,10.41
2022-09-18T17:26:55.843Z,10.42
2022-09-18T17:29:23.207Z,10.30
2022-09-18T17:31:52.815Z,10.25
2022-09-18T17:34:27.569Z,10.04
2022-09-18T17:36:55.090Z,9.97
2022-09-18T17:39:23.436Z,9.93
2022-09-18T17:41:51.982Z,9.90
2022-09-18T17:44:20.885Z,9.84
2022-09-18T17:46:51.880Z,9.71
2022-09-18T17:49:20.163Z,9.53
2022-09-18T17:51:49.381Z,9.39
2022-09-18T17:54:19.527Z,9.38
2022-09-18T17:56:48.740Z,9.39
2022-09-18T17:59:18.766Z,9.42
2022-09-18T18:01:47.389Z,9.40
2022-09-18T18:04:15.342Z,9.35
2022-09-18T18:06:43.627Z,9.33
2022-09-18T18:09:10.873Z,9.33
2022-09-18T18:11:38.430Z,9.07
2022-09-18T18:14:06.044Z,9.05
2022-09-18T18:16:34.727Z,9.15
2022-09-18T18:19:05.772Z,8.93
2022-09-18T18:21:34.195Z,8.88
2022-09-18T18:24:07.294Z,8.78
2022-09-18T18:26:38.105Z,8.78
2022-09-18T18:29:11.643Z,8.79
2022-09-18T18:31:40.958Z,8.80
2022-09-18T18:34:11.304Z,8.95
2022-09-18T18:36:40.507Z,9.05
2022-09-18T18:39:12.628Z,9.18
2022-09-18T18:41:41.466Z,9.32
2022-09-18T18:44:08.709Z,9.35
2022-09-18T18:46:37.253Z,9.36
2022-09-18T18:49:09.965Z,9.31
2022-09-18T18:51:48.035Z,9.25
2022-09-18T18:54:21.217Z,9.28
2022-09-18T18:56:49.400Z,9.28
2022-09-18T18:59:18.603Z,9.46
2022-09-18T19:01:56.896Z,9.50
2022-09-18T19:04:24.528Z,9.39
2022-09-18T19:06:52.825Z,9.58
2022-09-18T19:09:25.102Z,9.46
2022-09-18T19:11:57.969Z,9.49
2022-09-18T19:14:32.360Z,9.57
2022-09-18T19:17:00.618Z,9.49
2022-09-18T19:19:29.603Z,9.33
2022-09-18T19:22:00.239Z,9.31
2022-09-18T19:24:28.260Z,9.15
2022-09-18T19:26:55.808Z,9.14
2022-09-18T19:29:23.893Z,9.11
2022-09-18T19:31:51.292Z,9.05
2022-09-18T19:34:20.833Z,9.08
2022-09-18T19:36:49.441Z,9.19
2022-09-18T19:39:19.623Z,9.16
2022-09-18T19:41:56.471Z,9.10
2022-09-18T19:44:32.002Z,9.03
2022-09-18T19:47:03.682Z,8.82
2022-09-18T19:49:37.509Z,8.73
2022-09-18T19:52:18.372Z,8.78
2022-09-18T19:54:51.420Z,8.73
2022-09-18T19:57:20.605Z,8.69
2022-09-18T19:59:55.533Z,8.70
2022-09-18T20:02:24.375Z,8.83
2022-09-18T20:04:52.428Z,9.00
2022-09-18T20:07:20.927Z,9.11
2022-09-18T20:09:48.988Z,9.24
2022-09-18T20:12:18.378Z,9.38
2022-09-18T20:14:58.739Z,9.47
2022-09-18T20:17:32.008Z,9.29
2022-09-18T20:19:59.842Z,9.21
2022-09-18T20:22:30.135Z,9.26
2022-09-18T20:25:00.261Z,9.35
2022-09-18T20:27:27.750Z,9.38
2022-09-18T20:29:56.750Z,9.42
2022-09-18T20:32:25.968Z,9.47
2022-09-18T20:35:13.723Z,9.41
2022-09-18T20:37:47.444Z,9.11
2022-09-18T20:40:14.534Z,9.22
2022-09-18T20:43:07.018Z,9.27
2022-09-18T20:45:35.135Z,9.24
2022-09-18T20:48:09.990Z,9.33
2022-09-18T20:51:13.727Z,9.33
2022-09-18T20:53:45.481Z,9.13
2022-09-18T20:56:15.846Z,9.01
2022-09-18T20:58:43.896Z,8.83
2022-09-18T21:01:20.640Z,8.91
2022-09-18T21:04:01.073Z,8.78
2022-09-18T21:06:36.371Z,8.73
2022-09-18T21:09:10.282Z,8.63
2022-09-18T21:11:43.554Z,8.53
2022-09-18T21:15:10.291Z,8.55
2022-09-18T21:17:54.371Z,8.39
2022-09-18T21:20:44.042Z,8.43
2022-09-18T21:23:31.000Z,8.27
2022-09-18T21:25:58.144Z,8.32
2022-09-18T21:28:25.686Z,8.36
2022-09-18T21:31:08.480Z,8.30
2022-09-18T21:33:55.466Z,8.28
2022-09-18T21:36:39.018Z,8.24
2022-09-18T21:39:10.194Z,8.17
2022-09-18T21:41:46.609Z,8.13
2022-09-18T21:44:27.372Z,8.23
2022-09-18T21:46:59.145Z,8.24
2022-09-18T21:50:03.516Z,8.17
2022-09-18T21:52:44.524Z,8.20
2022-09-18T21:55:22.913Z,8.19
2022-09-18T21:57:56.039Z,8.16
2022-09-18T22:00:28.214Z,8.10
2022-09-18T22:02:55.263Z,8.09
2022-09-18T22:05:29.674Z,8.04
2022-09-18T22:08:00.141Z,7.99
2022-09-18T22:10:45.896Z,7.97
2022-09-18T22:13:34.865Z,7.94
2022-09-18T22:16:02.082Z,7.92
2022-09-18T22:18:35.929Z,7.91
2022-09-18T22:21:04.583Z,7.89
2022-09-18T22:23:32.722Z,7.94
2022-09-18T22:26:07.382Z,7.92
2022-09-18T22:28:42.680Z,7.98
2022-09-18T22:31:23.177Z,7.83
2022-09-18T22:34:15.249Z,7.86
2022-09-18T22:36:47.856Z,7.88
2022-09-18T22:39:16.584Z,7.87
2022-09-18T22:41:45.110Z,7.95
2022-09-18T22:44:21.644Z,7.82
2022-09-18T22:46:56.805Z,7.92
2022-09-18T22:49:39.066Z,7.83
2022-09-18T22:52:23.226Z,7.88
2022-09-18T22:54:54.341Z,7.81
2022-09-18T22:57:39.707Z,7.97
2022-09-18T23:00:55.088Z,7.97
2022-09-18T23:03:30.336Z,8.05
2022-09-18T23:06:06.691Z,8.00
2022-09-18T23:08:35.792Z,7.85
2022-09-18T23:11:16.936Z,7.89
2022-09-18T23:13:51.832Z,8.04
2022-09-18T23:16:20.378Z,7.88
2022-09-18T23:18:56.813Z,7.83
2022-09-18T23:21:29.189Z,7.92
2022-09-18T23:24:01.486Z,8.11
2022-09-18T23:26:32.767Z,7.96
2022-09-18T23:29:01.631Z,7.97
2022-09-18T23:31:32.161Z,7.94
2022-09-18T23:34:03.921Z,8.03
2022-09-18T23:36:36.058Z,8.02
2022-09-18T23:39:15.165Z,7.89
2022-09-18T23:41:42.827Z,7.90
2022-09-18T23:44:18.796Z,7.93
2022-09-18T23:46:49.660Z,7.77
2022-09-18T23:49:27.170Z,7.86
2022-09-18T23:51:55.491Z,7.83
2022-09-18T23:54:35.824Z,7.99
2022-09-18T23:57:04.077Z,7.96
2022-09-18T23:59:33.130Z,8.00
